createdAt,value
2023-02-19T00:01:13.431Z,0.40
2023-02-19T00:03:41.819Z,0.17
2023-02-19T00:06:11.030Z,0.63
2023-02-19T00:08:38.831Z,1.02
2023-02-19T00:11:08.592Z,0.88
2023-02-19T00:13:40.243Z,0.68
2023-02-19T00:16:08.498Z,0.70
2023-02-19T00:18:36.136Z,0.35
2023-02-19T00:21:03.171Z,0.55
2023-02-19T00:23:30.095Z,1.15
2023-02-19T00:26:00.953Z,0.88
2023-02-19T00:28:29.702Z,1.08
2023-02-19T00:30:56.206Z,0.10
2023-02-19T00:33:22.741Z,0.63
2023-02-19T00:35:49.478Z,0.95
2023-02-19T00:38:15.963Z,0.75
2023-02-19T00:40:42.352Z,1.27
2023-02-19T00:43:08.750Z,0.32
2023-02-19T00:45:35.645Z,0.82
2023-02-19T00:48:02.076Z,0.52
2023-02-19T00:50:28.525Z,0.32
2023-02-19T00:52:54.933Z,0.45
2023-02-19T00:55:21.314Z,0.40
2023-02-19T00:57:47.685Z,0.70
2023-02-19T01:00:14.372Z,0.43
2023-02-19T01:02:40.945Z,0.30
2023-02-19T01:05:08.305Z,0.22
2023-02-19T01:07:38.689Z,0.22
2023-02-19T01:10:05.762Z,0.30
2023-02-19T01:14:59.032Z,0.73
2023-02-19T01:17:25.567Z,0.65
2023-02-19T01:19:52.122Z,2.13
2023-02-19T01:22:18.542Z,0.17
2023-02-19T01:24:44.937Z,0.47
2023-02-19T01:27:11.342Z,1.02
2023-02-19T01:29:37.864Z,0.22
2023-02-19T01:32:04.370Z,0.10
2023-02-19T01:34:33.243Z,0.20
2023-02-19T01:37:00.075Z,0.10
2023-02-19T01:41:52.848Z,0.60
2023-02-19T01:44:22.166Z,0.22
2023-02-19T01:46:48.684Z,0.65
2023-02-19T01:49:21.242Z,0.60
2023-02-19T01:51:54.273Z,0.73
2023-02-19T01:54:25.065Z,0.47
2023-02-19T01:56:52.282Z,0.40
2023-02-19T01:59:18.936Z,0.30
2023-02-19T02:01:46.107Z,0.55
2023-02-19T02:04:13.933Z,1.75
2023-02-19T02:06:49.593Z,1.85
2023-02-19T02:09:37.693Z,0.30
2023-02-19T02:12:04.418Z,0.20
2023-02-19T02:14:34.922Z,0.63
2023-02-19T02:17:20.179Z,0.40
2023-02-19T02:20:10.394Z,0.30
2023-02-19T02:23:11.963Z,0.52
2023-02-19T02:25:59.448Z,0.50
2023-02-19T02:28:36.319Z,0.60
2023-02-19T02:31:25.033Z,0.40
2023-02-19T02:34:04.599Z,0.73
2023-02-19T02:36:38.648Z,0.47
2023-02-19T02:39:09.107Z,0.55
2023-02-19T02:41:42.230Z,0.93
2023-02-19T02:44:08.589Z,0.93
2023-02-19T02:46:38.743Z,0.32
2023-02-19T02:49:08.962Z,0.50
2023-02-19T02:51:43.958Z,1.02
2023-02-19T02:54:37.415Z,1.77
2023-02-19T02:57:04.625Z,1.20
2023-02-19T02:59:35.752Z,1.13
2023-02-19T03:02:12.320Z,0.85
2023-02-19T03:05:14.994Z,0.80
2023-02-19T03:07:55.897Z,0.63
2023-02-19T03:10:36.108Z,1.48
2023-02-19T03:13:24.694Z,0.70
2023-02-19T03:16:15.087Z,0.60
2023-02-19T03:19:05.030Z,0.80
2023-02-19T03:21:34.864Z,1.00
2023-02-19T03:24:21.769Z,1.45
2023-02-19T03:26:53.841Z,0.50
2023-02-19T03:29:26.417Z,1.05
2023-02-19T03:32:00.724Z,0.80
2023-02-19T03:34:34.760Z,1.40
2023-02-19T03:37:08.813Z,0.65
2023-02-19T03:39:44.157Z,2.22
2023-02-19T03:42:58.953Z,1.15
2023-02-19T03:45:50.289Z,0.98
2023-02-19T03:48:25.112Z,1.83
2023-02-19T03:51:16.271Z,1.40
2023-02-19T03:54:07.529Z,2.22
2023-02-19T03:56:42.742Z,2.22
2023-02-19T03:59:09.096Z,3.97
2023-02-19T04:01:47.127Z,3.03
2023-02-19T04:04:21.785Z,3.28
2023-02-19T04:06:53.870Z,3.30
2023-02-19T04:09:22.805Z,4.75
2023-02-19T04:11:51.694Z,3.20
2023-02-19T04:14:31.054Z,3.50
2023-02-19T04:17:06.286Z,6.10
2023-02-19T04:19:36.705Z,3.60
2023-02-19T04:22:05.738Z,4.80
2023-02-19T04:24:44.358Z,3.78
2023-02-19T04:27:11.119Z,3.20
2023-02-19T04:29:39.184Z,3.97
2023-02-19T04:32:06.478Z,6.35
2023-02-19T04:34:33.154Z,3.97
2023-02-19T04:36:59.481Z,5.18
2023-02-19T04:39:25.869Z,5.47
2023-02-19T04:41:52.194Z,5.43
2023-02-19T04:44:18.598Z,4.93
2023-02-19T04:46:45.353Z,4.43
2023-02-19T04:49:11.796Z,7.63
2023-02-19T04:51:39.038Z,5.00
2023-02-19T04:54:05.558Z,4.38
2023-02-19T04:56:32.020Z,6.50
2023-02-19T04:58:58.425Z,4.38
2023-02-19T05:01:25.437Z,5.07
2023-02-19T05:03:52.410Z,4.70
2023-02-19T05:06:18.935Z,4.97
2023-02-19T05:08:45.406Z,6.50
2023-02-19T05:11:12.932Z,4.88
2023-02-19T05:13:39.851Z,7.28
2023-02-19T05:16:13.774Z,5.82
2023-02-19T05:18:41.524Z,4.60
2023-02-19T05:21:09.266Z,5.60
2023-02-19T05:23:36.091Z,5.63
2023-02-19T05:26:12.245Z,4.68
2023-02-19T05:28:39.098Z,5.38
2023-02-19T05:31:09.060Z,6.43
2023-02-19T05:33:37.209Z,5.35
2023-02-19T05:36:12.293Z,10.18
2023-02-19T05:38:40.111Z,7.57
2023-02-19T05:41:14.448Z,6.10
2023-02-19T05:43:42.353Z,6.25
2023-02-19T05:46:10.386Z,8.57
2023-02-19T05:48:37.330Z,6.45
2023-02-19T05:51:05.882Z,7.72
2023-02-19T05:53:33.028Z,6.35
2023-02-19T05:55:59.897Z,7.00
2023-02-19T05:58:27.492Z,4.43
2023-02-19T06:00:53.989Z,8.07
2023-02-19T06:03:21.093Z,5.72
2023-02-19T06:05:47.732Z,5.68
2023-02-19T06:08:15.832Z,6.65
2023-02-19T06:10:42.473Z,6.95
2023-02-19T06:13:09.875Z,7.60
2023-02-19T06:15:37.168Z,5.72
2023-02-19T06:18:04.238Z,8.85
2023-02-19T06:20:30.615Z,5.70
2023-02-19T06:22:57.017Z,4.97
2023-02-19T06:25:23.449Z,7.63
2023-02-19T06:27:49.874Z,9.80
2023-02-19T06:30:16.363Z,9.70
2023-02-19T06:32:42.782Z,7.20
2023-02-19T06:35:09.191Z,8.60
2023-02-19T06:37:35.783Z,7.30
2023-02-19T06:40:02.192Z,8.43
2023-02-19T06:42:32.535Z,9.23
2023-02-19T06:44:59.005Z,8.50
2023-02-19T06:47:25.588Z,9.93
2023-02-19T06:49:52.033Z,10.30
2023-02-19T06:52:18.441Z,8.07
2023-02-19T06:54:44.883Z,10.27
2023-02-19T06:57:11.295Z,10.57
2023-02-19T06:59:37.691Z,10.52
2023-02-19T07:02:04.082Z,6.78
2023-02-19T07:04:30.464Z,11.52
2023-02-19T07:06:57.011Z,10.02
2023-02-19T07:09:25.306Z,12.32
2023-02-19T07:11:52.298Z,11.02
2023-02-19T07:14:18.961Z,8.95
2023-02-19T07:16:47.465Z,7.57
2023-02-19T07:19:15.106Z,9.30
2023-02-19T07:21:42.307Z,10.18
2023-02-19T07:24:10.178Z,6.47
2023-02-19T07:26:36.716Z,10.20
2023-02-19T07:29:04.062Z,8.10
2023-02-19T07:31:30.689Z,8.80
2023-02-19T07:33:57.347Z,7.32
2023-02-19T07:36:24.546Z,8.10
2023-02-19T07:38:57.872Z,6.20
2023-02-19T07:41:26.124Z,9.60
2023-02-19T07:43:53.792Z,8.60
2023-02-19T07:46:21.468Z,9.20
2023-02-19T07:48:47.852Z,7.03
2023-02-19T07:51:18.927Z,7.50
2023-02-19T07:53:46.818Z,18.85
2023-02-19T07:56:13.901Z,9.85
2023-02-19T07:58:40.948Z,8.98
2023-02-19T08:01:18.910Z,10.82
2023-02-19T08:03:45.962Z,6.60
2023-02-19T08:06:12.720Z,11.60
2023-02-19T08:08:39.993Z,8.02
2023-02-19T08:13:53.423Z,8.85
2023-02-19T08:16:33.108Z,9.07
2023-02-19T08:19:03.794Z,11.25
2023-02-19T08:21:30.257Z,11.32
2023-02-19T08:23:56.633Z,10.57
2023-02-19T08:26:24.259Z,7.70
2023-02-19T08:28:50.598Z,10.80
2023-02-19T08:31:17.322Z,10.07
2023-02-19T08:33:43.753Z,12.55
2023-02-19T08:36:11.174Z,10.82
2023-02-19T08:38:38.496Z,8.18
2023-02-19T08:41:10.602Z,9.73
2023-02-19T08:43:37.413Z,11.82
2023-02-19T08:46:04.290Z,11.35
2023-02-19T08:48:30.952Z,9.48
2023-02-19T08:50:59.850Z,9.35
2023-02-19T08:53:26.686Z,9.13
2023-02-19T08:55:53.482Z,11.52
2023-02-19T09:00:46.455Z,9.30
2023-02-19T09:03:12.976Z,12.05
2023-02-19T09:05:40.425Z,10.15
2023-02-19T09:10:33.309Z,12.20
2023-02-19T09:13:00.774Z,9.45
2023-02-19T09:17:55.167Z,9.27
2023-02-19T09:20:21.601Z,12.88
2023-02-19T09:22:48.068Z,9.93
2023-02-19T09:25:14.742Z,11.65
2023-02-19T09:27:41.186Z,10.85
2023-02-19T09:30:08.061Z,9.65
2023-02-19T09:35:01.135Z,11.45
2023-02-19T09:37:28.206Z,9.95
2023-02-19T09:39:55.024Z,10.52
2023-02-19T09:44:55.810Z,7.70
2023-02-19T09:47:28.300Z,10.85
2023-02-19T09:49:59.686Z,8.82
2023-02-19T09:52:34.154Z,10.38
2023-02-19T09:55:25.926Z,10.90
2023-02-19T09:57:53.204Z,9.80
2023-02-19T10:00:23.866Z,9.48
2023-02-19T10:02:58.438Z,8.52
2023-02-19T10:05:26.311Z,8.27
2023-02-19T10:07:54.288Z,9.40
2023-02-19T10:10:34.881Z,9.82
2023-02-19T10:13:30.394Z,9.65
2023-02-19T10:15:58.820Z,8.70
2023-02-19T10:18:31.058Z,7.97
2023-02-19T10:20:58.266Z,7.18
2023-02-19T10:23:25.773Z,9.43
2023-02-19T10:25:57.412Z,8.10
2023-02-19T10:28:28.556Z,9.23
2023-02-19T10:30:58.090Z,10.45
2023-02-19T10:33:25.623Z,8.00
2023-02-19T10:36:07.191Z,10.52
2023-02-19T10:38:37.984Z,7.72
2023-02-19T10:41:07.983Z,8.18
2023-02-19T10:43:42.422Z,9.50
2023-02-19T10:46:23.071Z,7.20
2023-02-19T10:48:55.620Z,8.40
2023-02-19T10:51:35.120Z,9.55
2023-02-19T10:54:36.125Z,6.28
2023-02-19T10:57:15.144Z,8.65
2023-02-19T10:59:53.611Z,7.97
2023-02-19T11:02:21.612Z,6.75
2023-02-19T11:05:09.110Z,4.97
2023-02-19T11:07:36.786Z,8.07
2023-02-19T11:10:05.482Z,8.25
2023-02-19T11:12:34.622Z,6.05
2023-02-19T11:15:20.781Z,6.40
2023-02-19T11:17:58.930Z,5.90
2023-02-19T11:20:26.229Z,7.13
2023-02-19T11:22:58.347Z,5.93
2023-02-19T11:25:25.833Z,5.80
2023-02-19T11:27:56.549Z,5.18
2023-02-19T11:30:36.406Z,6.50
2023-02-19T11:33:33.159Z,5.00
2023-02-19T11:36:14.848Z,4.82
2023-02-19T11:38:42.477Z,6.15
2023-02-19T11:41:18.272Z,4.82
2023-02-19T11:43:57.236Z,3.97
2023-02-19T11:49:21.178Z,5.50
2023-02-19T11:52:03.384Z,6.18
2023-02-19T11:54:44.918Z,5.00
2023-02-19T11:57:52.369Z,5.75
2023-02-19T12:00:22.143Z,5.55
2023-02-19T12:03:13.546Z,6.25
2023-02-19T12:06:15.757Z,5.38
2023-02-19T12:08:57.718Z,5.88
2023-02-19T12:11:36.576Z,6.15
2023-02-19T12:16:47.713Z,5.00
2023-02-19T12:19:32.631Z,3.75
2023-02-19T12:25:14.301Z,4.15
2023-02-19T12:28:04.973Z,4.30
2023-02-19T12:30:40.196Z,3.67
2023-02-19T12:33:25.573Z,3.78
2023-02-19T12:35:55.236Z,4.53
2023-02-19T12:38:33.342Z,5.95
2023-02-19T12:41:33.822Z,5.97
2023-02-19T12:44:11.886Z,6.45
2023-02-19T12:46:49.305Z,7.45
2023-02-19T12:49:40.325Z,7.28
2023-02-19T12:54:44.108Z,7.05
2023-02-19T12:57:15.592Z,5.82
2023-02-19T12:59:46.238Z,6.65
2023-02-19T13:02:22.218Z,4.32
2023-02-19T13:05:23.736Z,6.15
2023-02-19T13:08:03.900Z,7.53
2023-02-19T13:10:44.923Z,3.38
2023-02-19T13:13:24.034Z,4.20
2023-02-19T13:15:56.665Z,3.45
2023-02-19T13:18:28.901Z,4.78
2023-02-19T13:20:56.346Z,4.65
2023-02-19T13:23:49.923Z,2.75
2023-02-19T13:26:31.700Z,3.00
2023-02-19T13:29:16.706Z,3.22
2023-02-19T13:32:14.028Z,2.70
2023-02-19T13:34:59.254Z,3.25
2023-02-19T13:37:26.675Z,5.03
2023-02-19T13:39:55.125Z,2.45
2023-02-19T13:42:32.982Z,2.72
2023-02-19T13:45:01.161Z,1.52
2023-02-19T13:47:59.702Z,1.77
2023-02-19T13:50:31.660Z,2.25
2023-02-19T13:52:59.894Z,6.05
2023-02-19T13:55:46.484Z,2.25
2023-02-19T13:58:34.788Z,3.45
2023-02-19T14:01:10.516Z,2.65
2023-02-19T14:03:37.120Z,2.83
2023-02-19T14:06:06.560Z,3.83
2023-02-19T14:09:00.228Z,3.65
2023-02-19T14:11:41.847Z,4.30
2023-02-19T14:14:43.730Z,2.90
2023-02-19T14:17:10.118Z,4.03
2023-02-19T14:19:42.832Z,3.88
2023-02-19T14:22:46.090Z,2.58
2023-02-19T14:25:34.868Z,4.53
2023-02-19T14:28:21.499Z,3.40
2023-02-19T14:30:54.727Z,4.55
2023-02-19T14:35:58.884Z,5.82
2023-02-19T14:38:27.596Z,4.50
2023-02-19T14:40:55.420Z,4.28
2023-02-19T14:43:25.100Z,4.65
2023-02-19T14:45:56.642Z,5.28
2023-02-19T14:48:35.202Z,5.07
2023-02-19T14:51:11.516Z,6.32
2023-02-19T14:53:43.037Z,4.35
2023-02-19T14:56:39.312Z,5.65
2023-02-19T14:59:11.801Z,5.80
2023-02-19T15:01:39.321Z,5.53
2023-02-19T15:04:06.551Z,6.13
2023-02-19T15:06:35.633Z,5.68
2023-02-19T15:09:05.868Z,5.70
2023-02-19T15:11:34.461Z,4.70
2023-02-19T15:14:03.835Z,5.68
2023-02-19T15:16:32.745Z,4.28
2023-02-19T15:19:00.063Z,3.72
2023-02-19T15:21:32.337Z,4.72
2023-02-19T15:24:04.976Z,5.32
2023-02-19T15:26:35.935Z,5.38
2023-02-19T15:29:08.960Z,5.00
2023-02-19T15:31:36.040Z,4.60
2023-02-19T15:34:02.691Z,4.45
2023-02-19T15:36:33.746Z,4.60
2023-02-19T15:39:02.505Z,5.25
2023-02-19T15:41:33.633Z,6.13
2023-02-19T15:44:15.241Z,5.40
2023-02-19T15:46:44.690Z,4.70
2023-02-19T15:49:21.954Z,5.15
2023-02-19T15:52:11.833Z,3.53
2023-02-19T15:54:52.488Z,4.30
2023-02-19T15:57:26.253Z,6.30
2023-02-19T16:00:05.526Z,4.88
2023-02-19T16:02:33.039Z,5.47
2023-02-19T16:05:02.098Z,4.03
2023-02-19T16:07:34.308Z,4.85
2023-02-19T16:10:19.494Z,4.45
2023-02-19T16:12:59.416Z,5.32
2023-02-19T16:15:27.998Z,5.60
2023-02-19T16:17:54.915Z,5.50
2023-02-19T16:20:26.119Z,4.60
2023-02-19T16:22:59.270Z,5.97
2023-02-19T16:25:40.333Z,8.18
2023-02-19T16:28:13.583Z,4.93
2023-02-19T16:30:41.394Z,6.13
2023-02-19T16:33:38.839Z,6.55
2023-02-19T16:36:21.732Z,4.80
2023-02-19T16:39:04.991Z,4.90
2023-02-19T16:41:31.629Z,5.95
2023-02-19T16:46:24.593Z,5.13
2023-02-19T16:48:51.429Z,6.95
2023-02-19T16:53:50.070Z,4.85
2023-02-19T16:56:18.799Z,5.50
2023-02-19T16:58:45.294Z,5.25
2023-02-19T17:01:12.165Z,4.70
2023-02-19T17:03:39.504Z,5.10
2023-02-19T17:06:06.009Z,4.47
2023-02-19T17:08:38.111Z,5.60
2023-02-19T17:11:10.694Z,5.60
2023-02-19T17:13:37.503Z,4.45
2023-02-19T17:16:04.595Z,7.32
2023-02-19T17:18:31.042Z,4.90
2023-02-19T17:21:10.896Z,7.15
2023-02-19T17:23:37.930Z,7.75
2023-02-19T17:26:04.527Z,6.20
2023-02-19T17:28:30.933Z,6.13
2023-02-19T17:30:57.372Z,6.32
2023-02-19T17:33:23.785Z,6.55
2023-02-19T17:35:50.228Z,6.47
2023-02-19T17:38:16.837Z,7.45
2023-02-19T17:40:44.981Z,5.53
2023-02-19T17:43:11.347Z,7.40
2023-02-19T17:45:38.303Z,6.65
2023-02-19T17:48:04.988Z,6.75
2023-02-19T17:50:32.353Z,6.93
2023-02-19T17:52:59.157Z,6.88
2023-02-19T17:55:25.921Z,7.90
2023-02-19T17:57:53.186Z,7.30
2023-02-19T18:00:26.569Z,8.23
2023-02-19T18:02:54.222Z,7.45
2023-02-19T18:05:21.070Z,8.13
2023-02-19T18:07:48.430Z,6.75
2023-02-19T18:10:19.557Z,7.78
2023-02-19T18:12:46.048Z,6.65
2023-02-19T18:15:30.601Z,7.03
2023-02-19T18:17:58.224Z,7.82
2023-02-19T18:20:28.974Z,7.82
2023-02-19T18:22:56.596Z,7.00
2023-02-19T18:25:24.164Z,8.38
2023-02-19T18:27:51.105Z,10.80
2023-02-19T18:30:19.320Z,9.52
2023-02-19T18:32:49.857Z,11.10
2023-02-19T18:35:17.831Z,10.68
2023-02-19T18:37:45.004Z,10.57
2023-02-19T18:40:12.167Z,10.68
2023-02-19T18:42:39.640Z,10.73
2023-02-19T18:47:32.948Z,10.60
2023-02-19T18:49:59.812Z,10.93
2023-02-19T18:52:27.258Z,12.70
2023-02-19T18:54:55.303Z,8.95
2023-02-19T18:57:23.497Z,12.18
2023-02-19T18:59:50.510Z,8.75
2023-02-19T19:02:17.265Z,14.25
2023-02-19T19:04:48.120Z,10.48
2023-02-19T19:07:14.674Z,10.85
2023-02-19T19:09:41.034Z,9.82
2023-02-19T19:12:07.508Z,8.98
2023-02-19T19:14:34.497Z,9.32
2023-02-19T19:17:00.990Z,10.80
2023-02-19T19:19:27.464Z,11.45
2023-02-19T19:21:54.733Z,10.23
2023-02-19T19:24:22.368Z,9.50
2023-02-19T19:26:50.604Z,12.82
2023-02-19T19:29:20.357Z,9.65
2023-02-19T19:31:46.960Z,9.20
2023-02-19T19:34:13.993Z,8.05
2023-02-19T19:39:07.165Z,8.63
2023-02-19T19:41:33.651Z,7.60
2023-02-19T19:44:06.300Z,7.60
2023-02-19T19:46:33.751Z,7.13
2023-02-19T19:49:00.541Z,9.45
2023-02-19T19:51:34.128Z,6.78
2023-02-19T19:54:01.856Z,8.02
2023-02-19T19:56:28.292Z,7.88
2023-02-19T19:58:54.708Z,7.55
2023-02-19T20:01:22.872Z,8.77
2023-02-19T20:03:51.038Z,8.48
2023-02-19T20:06:28.488Z,6.10
2023-02-19T20:08:55.080Z,7.78
2023-02-19T20:11:21.529Z,7.63
2023-02-19T20:13:48.154Z,7.22
2023-02-19T20:16:14.754Z,7.05
2023-02-19T20:18:41.980Z,7.15
2023-02-19T20:21:10.460Z,5.40
2023-02-19T20:23:40.334Z,5.60
2023-02-19T20:26:06.871Z,6.97
2023-02-19T20:28:34.104Z,5.85
2023-02-19T20:31:00.654Z,5.88
2023-02-19T20:33:27.153Z,6.47
2023-02-19T20:35:53.649Z,5.05
2023-02-19T20:38:20.097Z,4.68
2023-02-19T20:40:46.672Z,5.80
2023-02-19T20:43:13.053Z,6.28
2023-02-19T20:45:40.904Z,5.00
2023-02-19T20:48:07.409Z,4.85
2023-02-19T20:50:33.824Z,4.40
2023-02-19T20:53:00.269Z,5.65
2023-02-19T20:55:26.762Z,4.70
2023-02-19T20:57:53.128Z,5.30
2023-02-19T21:00:20.132Z,7.55
2023-02-19T21:02:46.880Z,6.13
2023-02-19T21:05:13.493Z,4.50
2023-02-19T21:07:39.951Z,4.55
2023-02-19T21:10:07.424Z,8.15
2023-02-19T21:12:33.817Z,5.90
2023-02-19T21:15:00.337Z,6.22
2023-02-19T21:17:26.747Z,6.15
2023-02-19T21:19:53.257Z,6.55
2023-02-19T21:22:19.743Z,5.47
2023-02-19T21:24:49.510Z,6.18
2023-02-19T21:27:16.103Z,6.32
2023-02-19T21:29:42.574Z,6.43
2023-02-19T21:32:09.145Z,5.85
2023-02-19T21:34:35.598Z,7.28
2023-02-19T21:37:02.162Z,7.53
2023-02-19T21:39:30.422Z,6.25
2023-02-19T21:41:58.608Z,6.32
2023-02-19T21:44:26.051Z,7.57
2023-02-19T21:46:52.479Z,6.15
2023-02-19T21:49:18.897Z,6.40
2023-02-19T21:51:47.810Z,7.72
2023-02-19T21:54:17.418Z,6.50
2023-02-19T21:56:44.246Z,6.00
2023-02-19T21:59:10.927Z,6.85
2023-02-19T22:01:42.071Z,6.55
2023-02-19T22:04:11.011Z,7.88
2023-02-19T22:06:39.442Z,6.97
2023-02-19T22:09:07.677Z,6.35
2023-02-19T22:11:34.188Z,8.93
2023-02-19T22:14:01.047Z,5.53
2023-02-19T22:18:57.536Z,8.88
2023-02-19T22:21:26.812Z,7.57
2023-02-19T22:23:54.277Z,7.65
2023-02-19T22:26:29.050Z,6.63
2023-02-19T22:28:55.522Z,7.47
2023-02-19T22:31:24.550Z,6.47
2023-02-19T22:33:51.568Z,8.48
2023-02-19T22:36:21.170Z,6.78
2023-02-19T22:38:48.167Z,8.13
2023-02-19T22:41:15.993Z,7.35
2023-02-19T22:43:42.386Z,8.40
2023-02-19T22:46:19.975Z,7.20
2023-02-19T22:48:46.768Z,7.88
2023-02-19T22:51:15.729Z,7.68
2023-02-19T22:53:46.836Z,6.32
2023-02-19T22:56:14.871Z,7.55
2023-02-19T22:58:42.000Z,7.05
2023-02-19T23:01:10.115Z,6.20
2023-02-19T23:03:54.884Z,9.07
2023-02-19T23:06:30.173Z,6.88
2023-02-19T23:08:58.375Z,8.23
2023-02-19T23:11:30.883Z,7.68
2023-02-19T23:13:58.261Z,8.27
2023-02-19T23:16:25.433Z,7.43
2023-02-19T23:21:18.768Z,6.35
2023-02-19T23:23:46.371Z,8.23
2023-02-19T23:26:14.265Z,9.15
2023-02-19T23:28:42.493Z,7.80
2023-02-19T23:31:10.105Z,9.00
2023-02-19T23:33:36.691Z,7.78
2023-02-19T23:36:03.368Z,7.05
2023-02-19T23:38:29.799Z,6.90
2023-02-19T23:40:56.198Z,7.63
2023-02-19T23:43:23.121Z,8.32
2023-02-19T23:45:49.666Z,8.30
2023-02-19T23:48:16.101Z,10.25
2023-02-19T23:50:42.907Z,11.15
2023-02-19T23:53:09.391Z,8.10
2023-02-19T23:55:35.785Z,9.05
2023-02-19T23:58:02.292Z,6.88
